Time;durP1;ratioP1;P1;durP2;ratioP2;P2;SDS_P1;SDS_P2;PMS_P1;PMS_P2;Temp;Humidity;BMP_temperature;BMP_pressure;BME280_temperature;BME280_humidity;BME280_pressure;Samples;Min_cycle;Max_cycle;Signal;HPM_P1;HPM_P2
2022/12/06 00:01:10;;;;;;;6.80;4.75;;;20.30;56.40;;;;;;5033737;27;93401;-83
2022/12/06 00:03:37;;;;;;;5.10;4.47;;;20.30;56.50;;;;;;5030059;27;92516;-82
2022/12/06 00:06:08;;;;;;;6.18;4.75;;;20.20;56.50;;;;;;5028434;27;94864;-83
2022/12/06 00:08:34;;;;;;;7.88;4.57;;;20.20;56.60;;;;;;5031808;27;93303;-83
2022/12/06 00:11:07;;;;;;;6.47;4.47;;;20.20;56.70;;;;;;5036231;27;92286;-83
2022/12/06 00:13:33;;;;;;;8.13;4.95;;;20.20;57.20;;;;;;5030006;27;92391;-83
2022/12/06 00:16:02;;;;;;;5.72;4.47;;;20.20;56.70;;;;;;5030131;27;94143;-83
2022/12/06 00:18:27;;;;;;;7.28;4.85;;;20.10;56.50;;;;;;5032903;27;93121;-83
2022/12/06 00:20:53;;;;;;;5.00;4.50;;;20.10;56.60;;;;;;5051448;27;92695;-83
2022/12/06 00:23:19;;;;;;;5.43;4.50;;;20.10;56.70;;;;;;5053376;27;92562;-83
2022/12/06 00:25:44;;;;;;;5.30;4.32;;;20.10;56.70;;;;;;5052341;27;94414;-83
2022/12/06 00:28:10;;;;;;;7.80;4.90;;;20.10;56.80;;;;;;5055641;27;93748;-83
2022/12/06 00:30:36;;;;;;;6.03;4.70;;;20.00;56.40;;;;;;5052108;27;92568;-83
2022/12/06 00:33:02;;;;;;;5.82;4.63;;;20.00;56.60;;;;;;5052728;27;92733;-83
2022/12/06 00:35:27;;;;;;;6.10;4.70;;;20.00;57.40;;;;;;5054920;27;92812;-83
2022/12/06 00:37:53;;;;;;;6.43;4.78;;;20.00;56.70;;;;;;5050838;27;92883;-83
2022/12/06 00:40:18;;;;;;;7.75;5.20;;;20.00;56.70;;;;;;5053634;27;92403;-83
2022/12/06 00:42:44;;;;;;;5.18;4.68;;;20.00;56.70;;;;;;5056017;27;91517;-83
2022/12/06 00:45:10;;;;;;;6.05;4.68;;;20.00;56.80;;;;;;5054014;27;94036;-82
2022/12/06 00:47:36;;;;;;;7.13;5.03;;;20.00;56.70;;;;;;5054914;27;92822;-83
2022/12/06 00:50:02;;;;;;;5.63;4.80;;;19.90;56.70;;;;;;5058227;27;93277;-82
2022/12/06 00:52:27;;;;;;;5.65;4.50;;;19.90;56.80;;;;;;5057444;27;92478;-83
2022/12/06 00:54:53;;;;;;;6.43;4.75;;;19.90;56.70;;;;;;5056354;27;93042;-83
2022/12/06 00:57:19;;;;;;;6.93;5.10;;;19.90;56.70;;;;;;5055849;27;93015;-83
2022/12/06 00:59:44;;;;;;;5.80;5.10;;;19.90;56.70;;;;;;5058137;27;92575;-83
2022/12/06 01:02:10;;;;;;;6.03;5.13;;;19.90;56.80;;;;;;5057174;27;101040;-84
2022/12/06 01:04:36;;;;;;;6.65;5.35;;;19.80;56.80;;;;;;5056443;27;92448;-84
2022/12/06 01:07:02;;;;;;;6.22;5.10;;;19.80;56.70;;;;;;5058156;27;93315;-83
2022/12/06 01:09:29;;;;;;;5.53;4.78;;;19.80;56.70;;;;;;5055385;27;92498;-83
2022/12/06 01:11:57;;;;;;;5.75;4.80;;;19.80;56.60;;;;;;5057552;27;93512;-83
2022/12/06 01:14:23;;;;;;;6.25;4.75;;;19.80;56.70;;;;;;5056683;27;96108;-83
2022/12/06 01:16:49;;;;;;;5.85;4.88;;;19.80;56.80;;;;;;5057610;27;94364;-84
2022/12/06 01:19:14;;;;;;;6.05;5.18;;;19.80;57.00;;;;;;5057865;27;92681;-83
2022/12/06 01:21:40;;;;;;;7.00;4.97;;;19.70;56.90;;;;;;5055350;27;92598;-82
2022/12/06 01:24:06;;;;;;;6.38;4.88;;;19.70;56.90;;;;;;5055647;27;92992;-83
2022/12/06 01:26:34;;;;;;;5.30;4.75;;;19.70;57.00;;;;;;5056439;27;92725;-84
2022/12/06 01:29:00;;;;;;;5.20;4.60;;;19.70;56.90;;;;;;5038985;27;92285;-83
2022/12/06 01:31:26;;;;;;;6.50;5.00;;;19.70;56.70;;;;;;5056525;27;92115;-84
2022/12/06 01:33:52;;;;;;;5.57;4.90;;;19.70;57.00;;;;;;5055143;27;93665;-80
2022/12/06 01:36:26;;;;;;;7.15;5.32;;;19.70;56.80;;;;;;5054563;27;93678;-82
2022/12/06 01:38:55;;;;;;;5.40;4.85;;;19.60;57.00;;;;;;5055630;27;93173;-81
2022/12/06 01:41:22;;;;;;;6.03;4.80;;;19.60;56.90;;;;;;5055142;27;92025;-81
2022/12/06 01:43:48;;;;;;;7.10;5.18;;;19.60;57.10;;;;;;5055869;27;93451;-82
2022/12/06 01:46:32;;;;;;;5.50;4.90;;;19.60;57.10;;;;;;5057365;27;92500;-82
2022/12/06 01:49:08;;;;;;;5.68;4.70;;;19.60;57.00;;;;;;5059370;27;92937;-81
2022/12/06 01:51:35;;;;;;;7.15;5.32;;;19.60;57.10;;;;;;5057253;27;92730;-82
2022/12/06 01:54:03;;;;;;;5.75;4.95;;;19.60;57.10;;;;;;5056687;27;93113;-82
2022/12/06 01:56:30;;;;;;;5.68;5.07;;;19.60;57.10;;;;;;5056083;27;93332;-81
2022/12/06 01:58:57;;;;;;;6.32;5.15;;;19.60;57.10;;;;;;5056258;27;92299;-81
2022/12/06 02:01:25;;;;;;;6.13;5.53;;;19.50;56.90;;;;;;5056367;27;92575;-81
2022/12/06 02:03:55;;;;;;;6.95;5.10;;;19.50;56.90;;;;;;5054732;27;94426;-82
2022/12/06 02:06:21;;;;;;;6.80;5.32;;;19.50;57.00;;;;;;5055360;27;95897;-81
2022/12/06 02:08:47;;;;;;;6.53;5.13;;;19.50;56.90;;;;;;5054569;27;92752;-81
2022/12/06 02:11:12;;;;;;;5.50;4.90;;;19.50;56.90;;;;;;5056584;27;92393;-81
2022/12/06 02:13:39;;;;;;;6.38;5.38;;;19.50;56.90;;;;;;5054244;27;93570;-81
2022/12/06 02:16:32;;;;;;;6.43;5.32;;;19.50;57.50;;;;;;5054283;27;92874;-82
2022/12/06 02:19:27;;;;;;;7.20;5.72;;;19.50;57.00;;;;;;5056178;27;92263;-81
2022/12/06 02:22:06;;;;;;;6.43;5.72;;;19.40;56.90;;;;;;5057275;27;91604;-81
2022/12/06 02:24:58;;;;;;;5.80;5.20;;;19.40;57.00;;;;;;5053317;27;92707;-81
2022/12/06 02:27:43;;;;;;;6.93;4.97;;;19.40;57.00;;;;;;5055912;27;92727;-81
2022/12/06 02:30:25;;;;;;;6.03;4.97;;;19.40;57.10;;;;;;5037535;27;93240;-81
2022/12/06 02:32:54;;;;;;;5.78;5.18;;;19.40;57.00;;;;;;5054645;27;92663;-81
2022/12/06 02:35:36;;;;;;;6.67;4.93;;;19.40;57.10;;;;;;5057632;27;92786;-81
2022/12/06 02:38:12;;;;;;;6.88;5.30;;;19.40;57.10;;;;;;5053694;27;93433;-81
2022/12/06 02:40:46;;;;;;;5.40;4.82;;;19.40;57.10;;;;;;5054069;27;93073;-81
2022/12/06 02:43:18;;;;;;;6.43;5.47;;;19.40;57.10;;;;;;5056413;27;92659;-81
2022/12/06 02:45:48;;;;;;;9.63;5.35;;;19.40;57.10;;;;;;5054389;27;97030;-82
2022/12/06 02:48:16;;;;;;;6.22;5.07;;;19.40;57.10;;;;;;5055870;27;93060;-81
2022/12/06 02:50:48;;;;;;;6.50;5.15;;;19.30;57.20;;;;;;5052665;27;92734;-81
2022/12/06 02:53:18;;;;;;;6.28;5.20;;;19.30;57.10;;;;;;5051545;27;92614;-81
2022/12/06 02:55:44;;;;;;;6.95;5.22;;;19.40;57.10;;;;;;5053647;27;94727;-81
2022/12/06 02:58:10;;;;;;;7.15;5.40;;;19.30;57.00;;;;;;5055137;27;92668;-82
2022/12/06 03:00:42;;;;;;;6.40;5.22;;;19.30;57.10;;;;;;5056270;27;92186;-81
2022/12/06 03:03:30;;;;;;;5.40;4.78;;;19.30;57.20;;;;;;5053889;27;92519;-81
2022/12/06 03:06:03;;;;;;;6.63;5.47;;;19.30;57.00;;;;;;5054552;27;93212;-81
2022/12/06 03:08:50;;;;;;;6.53;5.28;;;19.30;57.10;;;;;;5056665;27;93134;-81
2022/12/06 03:11:16;;;;;;;4.93;4.40;;;19.30;57.00;;;;;;5055996;27;92080;-81
2022/12/06 03:13:56;;;;;;;7.00;5.53;;;19.30;57.10;;;;;;5054457;27;92315;-81
2022/12/06 03:16:27;;;;;;;5.75;4.88;;;19.30;57.10;;;;;;5055256;27;93324;-81
2022/12/06 03:19:06;;;;;;;6.68;5.30;;;19.20;56.90;;;;;;5050998;27;93227;-81
2022/12/06 03:21:57;;;;;;;6.57;5.32;;;19.20;57.00;;;;;;5055500;27;94139;-81
2022/12/06 03:24:24;;;;;;;6.72;5.60;;;19.20;57.00;;;;;;5053266;27;92433;-81
2022/12/06 03:26:51;;;;;;;7.00;5.28;;;19.20;57.10;;;;;;5056289;27;92711;-81
2022/12/06 03:29:21;;;;;;;6.45;5.60;;;19.20;57.00;;;;;;5054292;27;92082;-81
2022/12/06 03:31:46;;;;;;;;;;;19.20;57.10;;;;;;5056454;27;92244;-81
2022/12/06 03:34:24;;;;;;;7.65;5.80;;;19.20;57.20;;;;;;5057745;27;92549;-81
2022/12/06 03:36:51;;;;;;;7.72;5.53;;;19.20;57.20;;;;;;5052671;27;93452;-80
2022/12/06 03:39:31;;;;;;;6.93;5.13;;;19.10;57.30;;;;;;5053698;27;93363;-81
2022/12/06 03:41:58;;;;;;;6.68;5.15;;;19.20;57.10;;;;;;5053626;27;92584;-81
2022/12/06 03:44:25;;;;;;;7.47;5.65;;;19.10;57.20;;;;;;5051831;27;92485;-81
2022/12/06 03:47:00;;;;;;;6.00;5.40;;;19.10;57.20;;;;;;5052637;27;95014;-81
2022/12/06 03:49:38;;;;;;;5.80;5.10;;;19.10;57.10;;;;;;5054826;27;94157;-81
2022/12/06 03:52:04;;;;;;;6.38;5.63;;;19.10;57.20;;;;;;5054913;27;92130;-81
2022/12/06 03:54:30;;;;;;;5.95;4.78;;;19.10;57.20;;;;;;5055881;27;91940;-81
2022/12/06 03:56:55;;;;;;;6.07;5.43;;;19.10;57.20;;;;;;5052920;27;93547;-81
2022/12/06 03:59:21;;;;;;;5.80;5.20;;;19.10;57.20;;;;;;5054407;27;93158;-81
2022/12/06 04:01:46;;;;;;;6.53;5.07;;;19.10;57.40;;;;;;5053740;27;92391;-81
2022/12/06 04:04:12;;;;;;;7.40;5.55;;;19.10;57.30;;;;;;5054950;27;91779;-81
2022/12/06 04:06:38;;;;;;;5.57;5.05;;;19.00;57.20;;;;;;5052113;27;95247;-81
2022/12/06 04:11:48;;;;;;;5.80;5.20;;;19.00;57.30;;;;;;5054301;27;93063;-81
2022/12/06 04:14:13;;;;;;;5.50;5.00;;;19.10;57.20;;;;;;5052637;27;92351;-81
2022/12/06 04:19:23;;;;;;;7.40;5.68;;;19.00;57.00;;;;;;5055926;27;92702;-82
2022/12/06 04:24:33;;;;;;;6.75;5.25;;;19.00;57.00;;;;;;5053128;27;92346;-81
2022/12/06 04:40:46;;;;;;;6.75;5.07;;;18.90;57.30;;;;;;5058995;27;92559;-81
2022/12/06 04:45:56;;;;;;;5.13;4.60;;;19.00;57.20;;;;;;5053382;27;92419;-82
2022/12/06 04:48:22;;;;;;;5.28;4.78;;;18.90;57.30;;;;;;5051277;27;94860;-80
2022/12/06 04:50:49;;;;;;;6.05;5.22;;;19.00;57.30;;;;;;5053764;27;92762;-81
2022/12/06 04:53:15;;;;;;;5.93;5.32;;;18.90;57.20;;;;;;5053510;27;92573;-82
2022/12/06 04:55:45;;;;;;;4.80;4.30;;;18.90;57.20;;;;;;5052190;27;91381;-82
2022/12/06 04:58:11;;;;;;;6.22;5.03;;;18.90;57.20;;;;;;5055860;27;92782;-82
2022/12/06 05:00:36;;;;;;;5.85;5.07;;;18.90;57.20;;;;;;5053099;27;92884;-81
2022/12/06 05:03:02;;;;;;;5.22;4.53;;;18.90;57.20;;;;;;5052358;27;93318;-82
2022/12/06 05:05:27;;;;;;;6.82;4.95;;;18.90;57.30;;;;;;5053741;27;92509;-82
2022/12/06 05:07:53;;;;;;;6.25;4.90;;;18.90;57.20;;;;;;4998801;27;93672;-82
2022/12/06 05:10:19;;;;;;;5.60;4.75;;;18.90;57.30;;;;;;5052140;27;92186;-82
2022/12/06 05:12:44;;;;;;;5.35;4.47;;;18.80;57.30;;;;;;5051461;27;92583;-82
2022/12/06 05:15:10;;;;;;;5.75;5.05;;;18.80;57.20;;;;;;5052652;27;92351;-81
2022/12/06 05:17:35;;;;;;;5.70;4.72;;;18.80;57.40;;;;;;5051510;27;92997;-82
2022/12/06 05:20:01;;;;;;;5.80;5.20;;;18.80;57.30;;;;;;5051290;27;93282;-82
2022/12/06 05:22:31;;;;;;;5.65;4.90;;;18.80;57.10;;;;;;5052871;27;92556;-82
2022/12/06 05:24:57;;;;;;;5.60;5.00;;;18.80;57.30;;;;;;5052853;27;92368;-82
2022/12/06 05:27:22;;;;;;;5.03;4.50;;;18.80;57.30;;;;;;5052698;27;95367;-82
2022/12/06 05:29:48;;;;;;;6.55;4.95;;;18.80;58.10;;;;;;5053211;27;93819;-82
2022/12/06 05:32:14;;;;;;;6.13;5.05;;;18.80;57.20;;;;;;5052053;27;92040;-83
2022/12/06 05:34:39;;;;;;;5.10;4.47;;;18.80;57.30;;;;;;5057418;27;92003;-82
2022/12/06 05:37:05;;;;;;;6.07;4.63;;;18.80;57.30;;;;;;5040391;27;94699;-82
2022/12/06 05:39:30;;;;;;;6.07;4.88;;;18.80;57.30;;;;;;5056920;27;92575;-81
2022/12/06 05:41:56;;;;;;;5.38;4.80;;;18.80;57.30;;;;;;5057212;27;92520;-82
2022/12/06 05:44:21;;;;;;;5.65;4.72;;;18.70;57.40;;;;;;5058118;27;91771;-82
2022/12/06 05:46:47;;;;;;;5.13;4.43;;;18.70;57.40;;;;;;5055886;27;93644;-81
2022/12/06 05:49:13;;;;;;;4.70;4.20;;;18.70;57.30;;;;;;5055529;27;93708;-81
2022/12/06 05:51:38;;;;;;;4.78;4.00;;;18.70;57.30;;;;;;5054887;27;94003;-81
2022/12/06 05:54:05;;;;;;;5.68;4.78;;;18.80;57.30;;;;;;5055429;27;92524;-82
2022/12/06 05:56:31;;;;;;;6.22;4.78;;;18.70;57.10;;;;;;5052368;27;93683;-82
2022/12/06 05:58:57;;;;;;;4.20;3.80;;;18.70;57.30;;;;;;5054370;27;92691;-81
2022/12/06 06:01:22;;;;;;;5.43;4.65;;;18.80;57.20;;;;;;5059307;27;92393;-82
2022/12/06 06:03:48;;;;;;;5.07;4.55;;;18.70;57.20;;;;;;5054493;27;91967;-82
2022/12/06 06:06:14;;;;;;;4.75;4.25;;;18.70;57.30;;;;;;5054559;27;93224;-82
2022/12/06 06:08:39;;;;;;;5.28;4.53;;;18.70;57.30;;;;;;5054942;27;92492;-82
2022/12/06 06:11:05;;;;;;;4.90;4.40;;;18.70;57.40;;;;;;5054455;27;92417;-82
2022/12/06 06:13:31;;;;;;;4.95;4.32;;;18.70;57.30;;;;;;5056300;27;92461;-82
2022/12/06 06:15:56;;;;;;;5.00;4.50;;;18.70;57.30;;;;;;5056701;27;94472;-82
2022/12/06 06:18:22;;;;;;;4.85;3.92;;;18.70;57.30;;;;;;5053087;27;99411;-82
2022/12/06 06:20:53;;;;;;;4.50;4.10;;;18.70;57.30;;;;;;5056676;27;92220;-82
2022/12/06 06:23:19;;;;;;;4.85;4.15;;;18.70;57.20;;;;;;5039287;27;92459;-82
2022/12/06 06:25:46;;;;;;;4.57;4.13;;;18.70;57.30;;;;;;5053912;27;95236;-82
2022/12/06 06:28:11;;;;;;;5.32;4.43;;;18.70;57.20;;;;;;5056147;27;93082;-82
2022/12/06 06:30:37;;;;;;;5.35;4.45;;;18.60;57.30;;;;;;5055355;27;92355;-82
2022/12/06 06:33:03;;;;;;;5.68;4.50;;;18.60;57.20;;;;;;5056553;27;91714;-82
2022/12/06 06:35:29;;;;;;;4.45;4.05;;;18.70;57.30;;;;;;5052578;27;92970;-82
2022/12/06 06:37:54;;;;;;;6.00;4.53;;;18.60;57.30;;;;;;5056834;27;92571;-82
2022/12/06 06:40:20;;;;;;;4.50;3.80;;;18.70;57.40;;;;;;5056127;27;93398;-82
2022/12/06 06:42:46;;;;;;;5.57;4.55;;;18.70;57.30;;;;;;5053000;27;92679;-82
2022/12/06 06:45:12;;;;;;;5.47;4.53;;;18.70;57.40;;;;;;5055461;27;95780;-83
2022/12/06 06:47:38;;;;;;;5.03;4.25;;;18.70;57.20;;;;;;5057166;27;94004;-82
2022/12/06 06:50:05;;;;;;;4.43;4.00;;;18.60;57.20;;;;;;5056447;27;92028;-82
2022/12/06 06:52:31;;;;;;;5.20;4.43;;;18.60;57.20;;;;;;5056539;27;92039;-83
2022/12/06 06:54:57;;;;;;;4.90;4.28;;;18.70;57.20;;;;;;5056283;27;93321;-86
2022/12/06 06:57:23;;;;;;;4.80;4.30;;;18.70;57.20;;;;;;5057330;27;92046;-83
2022/12/06 06:59:48;;;;;;;5.32;4.50;;;18.70;57.30;;;;;;5039193;27;92523;-86
2022/12/06 07:02:16;;;;;;;5.32;4.32;;;18.70;56.90;;;;;;5055838;27;92767;-84
2022/12/06 07:04:42;;;;;;;4.45;4.05;;;18.70;56.90;;;;;;5037481;27;97288;-84
2022/12/06 07:07:08;;;;;;;5.57;4.13;;;18.70;56.80;;;;;;5056266;27;94209;-85
2022/12/06 07:09:34;;;;;;;5.18;4.15;;;18.60;56.80;;;;;;5057168;27;92715;-83
2022/12/06 07:11:59;;;;;;;5.07;4.57;;;18.60;56.90;;;;;;5055875;27;92284;-83
2022/12/06 07:14:25;;;;;;;5.32;4.13;;;18.60;56.80;;;;;;5056796;27;93531;-84
2022/12/06 07:16:50;;;;;;;5.47;4.43;;;18.60;56.90;;;;;;5055959;27;93023;-85
2022/12/06 07:19:16;;;;;;;4.75;4.03;;;18.60;56.80;;;;;;5058210;27;92996;-84
2022/12/06 07:21:42;;;;;;;4.75;4.07;;;18.60;56.90;;;;;;5058286;27;91406;-85
2022/12/06 07:24:08;;;;;;;5.75;4.47;;;18.70;56.90;;;;;;5057817;27;94206;-85
2022/12/06 07:26:34;;;;;;;4.97;4.28;;;18.80;56.40;;;;;;5056292;27;93307;-85
2022/12/06 07:28:59;;;;;;;5.15;3.80;;;18.90;56.60;;;;;;5039586;27;93091;-83
2022/12/06 07:31:27;;;;;;;5.60;4.25;;;19.00;56.50;;;;;;5058831;27;92372;-84
2022/12/06 07:33:55;;;;;;;10.10;4.53;;;19.00;56.60;;;;;;5057214;27;93183;-84
2022/12/06 07:36:22;;;;;;;5.95;4.45;;;19.10;56.60;;;;;;5063721;27;93598;-85
2022/12/06 07:38:49;;;;;;;6.53;4.25;;;19.30;56.70;;;;;;5057082;27;92491;-84
2022/12/06 07:46:45;;;;;;;12.30;4.03;;;19.60;56.40;;;;;;5057819;27;92117;-84
2022/12/06 07:49:11;;;;;;;6.32;3.97;;;19.80;56.50;;;;;;5059296;27;92257;-84
2022/12/06 07:51:37;;;;;;;5.20;3.53;;;19.90;56.40;;;;;;5054917;27;92192;-83
2022/12/06 07:54:02;;;;;;;4.82;4.05;;;20.00;56.40;;;;;;5054672;27;94836;-83
2022/12/06 07:56:28;;;;;;;5.05;3.92;;;20.10;56.50;;;;;;5053247;27;96400;-84
2022/12/06 07:58:54;;;;;;;5.13;4.25;;;20.10;56.40;;;;;;5056245;27;92276;-84
2022/12/06 08:01:19;;;;;;;5.10;3.90;;;20.20;56.30;;;;;;5055726;27;92561;-83
2022/12/06 08:03:45;;;;;;;6.95;4.22;;;20.20;56.30;;;;;;5056024;27;93198;-84
2022/12/06 08:06:11;;;;;;;6.00;3.88;;;20.20;56.30;;;;;;5055730;27;92783;-83
2022/12/06 08:08:37;;;;;;;8.10;3.65;;;20.20;56.30;;;;;;5057812;27;92033;-83
2022/12/06 08:11:06;;;;;;;5.05;3.42;;;20.20;56.40;;;;;;5058214;27;91476;-83
2022/12/06 08:13:32;;;;;;;4.82;3.47;;;20.20;56.50;;;;;;5057765;27;93494;-83
2022/12/06 08:15:58;;;;;;;4.20;3.30;;;20.10;56.80;;;;;;5057301;27;97755;-84
2022/12/06 08:18:24;;;;;;;5.78;3.90;;;20.10;56.70;;;;;;5055718;27;93759;-84
2022/12/06 08:20:51;;;;;;;4.25;3.67;;;20.00;56.70;;;;;;5054370;27;92286;-83
2022/12/06 08:23:17;;;;;;;6.20;3.80;;;20.10;56.80;;;;;;5055707;27;93152;-84
2022/12/06 08:25:43;;;;;;;4.63;3.63;;;20.10;56.60;;;;;;5054042;27;92534;-83
2022/12/06 08:28:09;;;;;;;5.20;3.50;;;20.00;56.80;;;;;;5056153;27;93307;-83
2022/12/06 08:30:38;;;;;;;7.22;3.70;;;20.00;57.10;;;;;;5055168;27;92741;-84
2022/12/06 08:33:04;;;;;;;4.45;3.78;;;20.00;57.10;;;;;;5056499;27;95303;-85
2022/12/06 08:35:29;;;;;;;66.13;13.98;;;20.00;57.30;;;;;;5036820;27;96641;-82
2022/12/06 08:37:55;;;;;;;91.07;19.40;;;19.90;56.90;;;;;;5053874;27;92647;-85
2022/12/06 08:40:21;;;;;;;47.22;11.32;;;19.90;55.80;;;;;;5055604;27;92433;-84
2022/12/06 08:42:46;;;;;;;42.78;12.98;;;19.90;56.30;;;;;;5054838;27;94493;-83
2022/12/06 08:45:12;;;;;;;57.40;14.57;;;19.90;55.90;;;;;;5054883;27;93527;-83
2022/12/06 08:47:37;;;;;;;39.97;11.65;;;19.80;55.60;;;;;;5055829;27;92364;-84
2022/12/06 08:50:04;;;;;;;37.42;11.57;;;19.80;56.30;;;;;;5055169;27;92395;-83
2022/12/06 08:52:30;;;;;;;36.10;10.85;;;19.70;56.60;;;;;;5052454;27;93168;-83
2022/12/06 08:54:55;;;;;;;40.75;11.65;;;19.60;56.90;;;;;;5055712;27;92957;-83
2022/12/06 08:57:21;;;;;;;46.47;11.63;;;19.60;56.80;;;;;;5052805;27;92556;-83
2022/12/06 08:59:46;;;;;;;36.05;11.05;;;19.60;57.10;;;;;;5054138;27;91321;-83
2022/12/06 09:02:12;;;;;;;36.28;11.50;;;19.60;57.10;;;;;;5053857;27;100240;-84
2022/12/06 09:04:38;;;;;;;33.47;11.07;;;19.60;57.30;;;;;;5053517;27;94987;-84
2022/12/06 09:07:04;;;;;;;32.95;11.18;;;19.60;57.20;;;;;;5056680;27;93022;-83
2022/12/06 09:09:30;;;;;;;42.20;10.98;;;19.60;57.30;;;;;;5056198;27;92680;-84
2022/12/06 09:11:55;;;;;;;29.58;10.05;;;19.60;57.30;;;;;;5057454;27;92686;-84
2022/12/06 09:14:21;;;;;;;37.30;10.40;;;19.60;57.40;;;;;;5057082;27;93340;-84
2022/12/06 09:16:47;;;;;;;30.30;10.02;;;19.60;57.50;;;;;;5058486;27;92659;-83
2022/12/06 09:19:13;;;;;;;35.85;10.70;;;19.70;57.40;;;;;;5057480;27;92342;-84
2022/12/06 09:21:41;;;;;;;29.98;9.35;;;19.70;57.40;;;;;;5059381;27;93658;-84
2022/12/06 09:24:12;;;;;;;33.47;10.27;;;19.70;57.30;;;;;;5056445;27;93551;-82
2022/12/06 09:26:39;;;;;;;37.25;10.35;;;19.70;57.10;;;;;;5056911;27;92054;-83
2022/12/06 09:29:04;;;;;;;36.63;10.02;;;19.70;57.40;;;;;;5037974;27;92809;-83
2022/12/06 09:31:30;;;;;;;30.80;9.80;;;19.70;57.10;;;;;;5056676;27;94605;-83
2022/12/06 09:33:56;;;;;;;31.02;10.23;;;19.70;57.10;;;;;;5055768;27;93426;-84
2022/12/06 09:36:26;;;;;;;34.35;11.18;;;19.70;57.10;;;;;;5057234;27;92510;-84
2022/12/06 09:39:05;;;;;;;25.42;9.20;;;19.70;57.20;;;;;;5058306;27;92447;-84
2022/12/06 09:41:59;;;;;;;24.20;9.57;;;19.70;57.20;;;;;;5038451;27;97299;-83
2022/12/06 09:44:58;;;;;;;23.52;8.70;;;19.70;57.30;;;;;;5037341;27;95976;-83
2022/12/06 09:47:50;;;;;;;31.63;9.88;;;19.70;57.30;;;;;;5038662;27;92069;-83
2022/12/06 09:50:40;;;;;;;30.75;9.77;;;19.70;57.30;;;;;;5057786;27;91314;-84
2022/12/06 09:53:17;;;;;;;32.50;10.15;;;19.70;57.60;;;;;;5055668;27;93771;-83
2022/12/06 09:56:05;;;;;;;26.35;9.38;;;19.60;57.40;;;;;;5058168;27;93352;-84
2022/12/06 09:59:09;;;;;;;28.83;9.77;;;19.60;57.20;;;;;;5041220;27;93181;-83
2022/12/06 10:02:03;;;;;;;25.63;8.70;;;19.70;57.40;;;;;;4964826;28;92874;-83
2022/12/06 10:04:37;;;;;;;22.63;8.93;;;19.70;57.50;;;;;;4941068;28;93314;-83
2022/12/06 10:07:20;;;;;;;18.58;8.10;;;19.70;57.30;;;;;;4963193;28;97399;-84
2022/12/06 10:10:16;;;;;;;26.17;10.02;;;19.70;57.30;;;;;;4964185;28;92796;-84
2022/12/06 10:13:29;;;;;;;23.83;9.20;;;19.90;56.60;;;;;;4963680;28;92712;-83
2022/12/06 10:16:06;;;;;;;23.25;9.48;;;20.00;56.50;;;;;;4905682;28;93743;-84
2022/12/06 10:18:40;;;;;;;21.88;8.52;;;20.00;56.60;;;;;;4905612;28;93524;-84
2022/12/06 10:21:37;;;;;;;21.38;8.32;;;20.00;56.50;;;;;;4893882;28;92356;-83
2022/12/06 10:24:17;;;;;;;26.42;10.13;;;20.10;56.10;;;;;;4897789;28;92982;-84
2022/12/06 10:26:51;;;;;;;27.65;10.00;;;20.00;55.30;;;;;;4896505;28;94075;-85
2022/12/06 10:29:42;;;;;;;25.17;9.82;;;20.00;55.10;;;;;;4897880;28;93904;-84
2022/12/06 10:32:21;;;;;;;17.27;9.30;;;20.00;55.70;;;;;;4841711;28;92609;-84
2022/12/06 10:34:58;;;;;;;23.85;9.85;;;20.00;55.80;;;;;;4885189;28;92414;-82
2022/12/06 10:37:42;;;;;;;25.55;10.05;;;20.00;56.10;;;;;;4913169;28;93210;-82
2022/12/06 10:40:22;;;;;;;27.20;9.50;;;20.00;56.00;;;;;;4933311;28;97731;-82
2022/12/06 10:43:18;;;;;;;21.73;9.57;;;20.10;55.50;;;;;;4933441;28;92485;-83
2022/12/06 10:49:05;;;;;;;24.88;9.68;;;20.20;58.20;;;;;;4929357;28;92507;-83
2022/12/06 10:51:38;;;;;;;25.10;9.73;;;20.20;58.10;;;;;;4958463;27;93110;-82
2022/12/06 10:54:23;;;;;;;25.75;9.82;;;20.20;59.50;;;;;;5055414;27;93402;-83
2022/12/06 10:56:51;;;;;;;19.13;9.35;;;20.20;59.70;;;;;;5054509;27;92867;-84
2022/12/06 10:59:29;;;;;;;18.83;9.53;;;20.20;59.00;;;;;;5056850;27;92579;-83
2022/12/06 11:02:00;;;;;;;23.45;9.10;;;20.20;59.20;;;;;;5055204;27;92852;-83
2022/12/06 11:04:32;;;;;;;22.83;8.75;;;20.20;58.70;;;;;;5053646;27;92714;-83
2022/12/06 11:07:07;;;;;;;17.25;8.38;;;20.10;58.40;;;;;;5057990;27;92705;-84
2022/12/06 11:09:38;;;;;;;21.92;8.80;;;20.10;58.00;;;;;;5055248;27;93365;-83
2022/12/06 11:12:27;;;;;;;21.80;7.57;;;20.10;57.80;;;;;;5055715;27;92721;-86
2022/12/06 11:15:21;;;;;;;16.60;8.40;;;20.10;58.00;;;;;;5055248;27;92401;-83
2022/12/06 11:18:23;;;;;;;14.05;7.50;;;20.10;57.40;;;;;;4952225;28;92168;-82
2022/12/06 11:20:52;;;;;;;19.02;7.88;;;20.00;57.80;;;;;;4872042;28;94431;-85
2022/12/06 11:23:26;;;;;;;17.58;7.90;;;20.10;58.60;;;;;;4866776;28;94783;-82
2022/12/06 11:26:19;;;;;;;17.70;7.93;;;20.10;58.60;;;;;;4873355;28;92978;-84
2022/12/06 11:28:58;;;;;;;14.50;7.68;;;20.10;58.80;;;;;;4875083;28;92572;-84
2022/12/06 11:31:30;;;;;;;13.77;7.20;;;20.10;58.90;;;;;;4874759;28;92960;-83
2022/12/06 11:33:58;;;;;;;15.98;7.95;;;20.10;58.70;;;;;;4873339;28;93473;-84
2022/12/06 11:36:24;;;;;;;17.98;7.65;;;20.10;58.90;;;;;;4876910;28;92581;-83
2022/12/06 11:38:50;;;;;;;19.33;8.20;;;20.20;59.10;;;;;;4874793;28;91812;-83
2022/12/06 11:41:26;;;;;;;14.27;7.60;;;20.20;58.70;;;;;;4872998;28;93363;-84
2022/12/06 11:43:52;;;;;;;16.60;7.30;;;20.20;58.60;;;;;;4873665;28;92874;-83
2022/12/06 11:46:22;;;;;;;14.55;7.57;;;20.20;58.70;;;;;;4873809;28;93693;-84
2022/12/06 11:48:48;;;;;;;;;;;20.20;58.80;;;;;;4874509;28;92154;-85
2022/12/06 11:51:22;;;;;;;16.27;6.85;;;20.30;59.10;;;;;;4875222;28;93511;-83
2022/12/06 11:54:02;;;;;;;16.95;7.63;;;20.30;59.10;;;;;;4879327;28;92907;-84
2022/12/06 11:56:36;;;;;;;16.38;7.82;;;20.40;59.20;;;;;;4992566;27;92657;-83
2022/12/06 11:59:27;;;;;;;21.85;7.88;;;20.40;59.30;;;;;;5036440;27;92535;-84
2022/12/06 12:01:59;;;;;;;17.40;7.95;;;20.40;59.20;;;;;;5034103;27;93690;-84
2022/12/06 12:04:34;;;;;;;21.50;7.72;;;20.30;58.80;;;;;;5017943;27;96093;-85
2022/12/06 12:07:15;;;;;;;16.08;7.30;;;20.40;59.00;;;;;;5036816;27;92956;-84
2022/12/06 12:09:46;;;;;;;19.15;8.68;;;20.30;58.40;;;;;;5036676;27;92544;-85
2022/12/06 12:12:15;;;;;;;15.73;8.05;;;20.30;58.50;;;;;;5033472;27;94239;-84
2022/12/06 12:14:43;;;;;;;23.98;10.05;;;20.30;58.80;;;;;;5034082;27;94274;-85
2022/12/06 12:17:18;;;;;;;50.45;17.58;;;20.20;56.80;;;;;;5032922;27;92559;-85
2022/12/06 12:19:48;;;;;;;127.32;35.45;;;20.20;55.20;;;;;;5040315;27;92313;-83
2022/12/06 12:22:22;;;;;;;108.53;28.55;;;20.10;54.70;;;;;;5056463;27;93654;-84
2022/12/06 12:24:52;;;;;;;71.47;23.05;;;20.10;54.80;;;;;;5054589;27;92972;-84
2022/12/06 12:27:34;;;;;;;65.22;19.95;;;20.10;55.00;;;;;;5052532;27;92735;-84
2022/12/06 12:30:34;;;;;;;51.85;17.67;;;20.10;54.80;;;;;;5053191;27;91541;-83
2022/12/06 12:33:08;;;;;;;49.22;16.45;;;20.00;54.20;;;;;;5053321;27;93302;-85
2022/12/06 12:35:33;;;;;;;45.85;15.43;;;20.10;54.20;;;;;;5055952;27;93341;-85
2022/12/06 12:38:14;;;;;;;41.38;15.00;;;20.10;53.60;;;;;;5043433;27;93916;-85
2022/12/06 12:40:43;;;;;;;38.95;12.68;;;20.10;53.20;;;;;;5054825;27;93309;-84
2022/12/06 12:43:11;;;;;;;37.97;12.10;;;20.10;53.10;;;;;;5061934;27;93150;-86
2022/12/06 12:46:09;;;;;;;30.63;11.83;;;20.10;53.10;;;;;;5059135;27;94584;-84
2022/12/06 12:48:36;;;;;;;26.38;10.93;;;20.10;52.30;;;;;;5062779;27;92070;-86
2022/12/06 12:51:24;;;;;;;25.10;10.32;;;20.10;51.50;;;;;;5059049;27;94441;-84
2022/12/06 12:54:02;;;;;;;32.50;11.82;;;20.10;51.40;;;;;;4985514;28;93391;-85
2022/12/06 12:56:37;;;;;;;31.88;12.07;;;20.10;52.00;;;;;;4987471;28;95105;-85
2022/12/06 12:59:18;;;;;;;35.15;12.50;;;20.10;52.00;;;;;;4988948;28;92507;-84
2022/12/06 13:01:50;;;;;;;31.48;11.73;;;20.20;52.20;;;;;;4986878;28;92717;-83
2022/12/06 13:04:35;;;;;;;29.45;11.45;;;20.20;52.80;;;;;;4987839;28;93772;-84
2022/12/06 13:07:05;;;;;;;22.63;9.68;;;20.20;53.10;;;;;;4984168;28;98743;-85
2022/12/06 13:09:42;;;;;;;25.85;11.30;;;20.30;52.70;;;;;;4988030;28;92960;-83
2022/12/06 13:12:18;;;;;;;26.08;9.73;;;20.30;53.00;;;;;;4986060;28;92623;-83
2022/12/06 13:14:54;;;;;;;26.10;10.43;;;20.30;53.30;;;;;;4987714;28;93463;-83
2022/12/06 13:17:25;;;;;;;28.23;11.02;;;20.20;53.50;;;;;;4969786;28;97985;-82
2022/12/06 13:19:52;;;;;;;30.05;10.43;;;20.20;53.70;;;;;;4986976;28;92398;-82
2022/12/06 13:22:26;;;;;;;23.13;9.90;;;20.10;53.80;;;;;;4987293;28;91502;-83
2022/12/06 13:25:02;;;;;;;26.80;9.82;;;20.20;54.10;;;;;;4987784;28;93216;-83
2022/12/06 13:27:35;;;;;;;23.70;10.23;;;20.20;54.00;;;;;;4988133;28;93639;-83
2022/12/06 13:30:17;;;;;;;23.67;9.75;;;20.20;54.00;;;;;;4984079;27;93617;-83
2022/12/06 13:33:16;;;;;;;22.38;9.90;;;20.20;54.30;;;;;;5042512;27;92563;-84